MUC | München Airways

 METAR UND TAF INFORMATION

METAR FOR DTTJ
ADDS - METARS form results

(0928 UTC 21 May 2019)
Data provider http://aviationweather.gov/metar/data/
 
METAR text: DTTJ 210900Z 11010KT 9999 FEW033 23/05 Q1018 NOSIG
Conditions at: DTTJ (DJERBA MELLITA , TN) observed 0900 UTC 21 May 2019
Temperature: 23.0°C (73°F)
Dewpoint: 5.0°C (41°F) [RH = 31%]
Pressure (altimeter): 30.06 inches Hg (1018.0 mb)
Winds: from the ESE (110 degrees) at 12 MPH (10 knots; 5.1 m/s)
Visibility: 6 or more miles (10+ km)
Ceiling: at least 12,000 feet AGL
Clouds: few clouds at 3300 feet AGL
Weather: no significant weather observed at this time

METAR text: DTTJ 210830Z 13010KT 9999 FEW033 23/05 Q1017 NOSIG
Conditions at: DTTJ (DJERBA MELLITA , TN) observed 0830 UTC 21 May 2019
Temperature: 23.0°C (73°F)
Dewpoint: 5.0°C (41°F) [RH = 31%]
Pressure (altimeter): 30.03 inches Hg (1017.0 mb)
Winds: from the SE (130 degrees) at 12 MPH (10 knots; 5.1 m/s)
Visibility: 6 or more miles (10+ km)
Ceiling: at least 12,000 feet AGL
Clouds: few clouds at 3300 feet AGL
Weather: no significant weather observed at this time

Forecast for: DTTJ (DJERBA MELLITA , TN)
Text: TAF DTTJ 210500Z 2106/2206 09010KT 9999 FEW030
Forecast period: 0600 UTC 21 May 2019 to 0600 UTC 22 May 2019
Forecast type: FROM: standard forecast or significant change
Winds: from the E (90 degrees) at 12 MPH (10 knots; 5.1 m/s)
Visibility: 6 or more miles 10+ km)
Ceiling: at least 12,000 feet AGL
Clouds: few clouds at 3000 feet AGL
Weather: no significant weather forecast for this period
Text: PROB40
Forecast period: 1000 to 1200 UTC 21 May 2019
Forecast type: TEMPORARY: The following changes expected for less than half the time period
Winds: from the E (100 degrees) at 17 MPH (15 knots; 7.7 m/s)
gusting to 29 MPH (25 knots; 12.9 m/s)
Visibility: missing
Ceiling: unknown
Clouds: missing
Weather: no significant weather forecast for this period
Text: TEMPO 2110/2112 10015G25KT
Forecast period: 0400 to 0600 UTC 22 May 2019
Forecast type: TEMPORARY: The following changes expected for less than half the time period
Visibility: 2.49 miles (4.01 km)
Ceiling: at least 12,000 feet AGL
Clouds: scattered clouds at 2600 feet AGL
few clouds at 3000 feet AGL
Weather: -TS -SHRA  (unknown weather, light rain showers)

 FLUGHAFENKARTE

 RUNWAY INFORMATION
Runway 09 Runway length 10171 ft Runway width 148 ft
Runway elevation 9 ft Runway displaced threshold 0 ft Runway heading 88
Runway 27 Runway length 10171 ft Runway width 148 ft
Runway elevation 18 ft Runway displaced threshold 0 ft Runway heading 268

 AIRPORT FREQUENCIES
Type APP Name DJERBA APP Frequency 120.3 MHZ
Type TWR Name DJERBA TWR Frequency 118.15 MHZ

 AIRPORT NEAR NAVIGATION AIDS
Type VOR-DME Name Djerba Frequency 112200 KHZ